sensor_id;sensor_type;location;lat;lon;timestamp;pressure;altitude;pressure_sealevel;temperature;humidity
9839;BME280;4958;48.150;11.506;2022-11-06T00:00:35;96050.22;;;8.81;85.66
9839;BME280;4958;48.150;11.506;2022-11-06T00:03:02;96044.41;;;8.79;85.46
9839;BME280;4958;48.150;11.506;2022-11-06T00:05:29;96047.78;;;8.79;85.30
9839;BME280;4958;48.150;11.506;2022-11-06T00:08:21;96045.06;;;8.81;84.93
9839;BME280;4958;48.150;11.506;2022-11-06T00:10:50;96041.28;;;8.67;85.00
9839;BME280;4958;48.150;11.506;2022-11-06T00:13:17;96042.09;;;8.68;85.00
9839;BME280;4958;48.150;11.506;2022-11-06T00:15:43;96043.72;;;8.69;85.21
9839;BME280;4958;48.150;11.506;2022-11-06T00:18:10;96047.09;;;8.69;85.63
9839;BME280;4958;48.150;11.506;2022-11-06T00:20:36;96047.38;;;8.66;84.97
9839;BME280;4958;48.150;11.506;2022-11-06T00:23:02;96048.81;;;8.60;84.72
9839;BME280;4958;48.150;11.506;2022-11-06T00:25:30;96042.38;;;8.56;84.96
9839;BME280;4958;48.150;11.506;2022-11-06T00:27:57;96035.63;;;8.55;85.08
9839;BME280;4958;48.150;11.506;2022-11-06T00:30:24;96029.56;;;8.56;84.93
9839;BME280;4958;48.150;11.506;2022-11-06T00:32:50;96031.47;;;8.54;84.92
9839;BME280;4958;48.150;11.506;2022-11-06T00:35:16;96027.28;;;8.53;84.95
9839;BME280;4958;48.150;11.506;2022-11-06T00:37:43;96025.06;;;8.58;85.21
9839;BME280;4958;48.150;11.506;2022-11-06T00:40:11;96024.56;;;8.55;84.64
9839;BME280;4958;48.150;11.506;2022-11-06T00:42:39;96026.84;;;8.58;85.12
9839;BME280;4958;48.150;11.506;2022-11-06T00:45:07;96033.56;;;8.59;84.51
9839;BME280;4958;48.150;11.506;2022-11-06T00:47:33;96028.44;;;8.59;84.83
9839;BME280;4958;48.150;11.506;2022-11-06T00:50:00;96029.41;;;8.58;84.39
9839;BME280;4958;48.150;11.506;2022-11-06T00:52:28;96025.88;;;8.59;84.66
9839;BME280;4958;48.150;11.506;2022-11-06T00:54:54;96030.84;;;8.60;84.39
9839;BME280;4958;48.150;11.506;2022-11-06T00:57:21;96031.31;;;8.56;83.93
9839;BME280;4958;48.150;11.506;2022-11-06T00:59:48;96034.47;;;8.50;84.06
9839;BME280;4958;48.150;11.506;2022-11-06T01:02:15;96030.31;;;8.49;84.52
9839;BME280;4958;48.150;11.506;2022-11-06T01:04:43;96029.31;;;8.42;84.47
9839;BME280;4958;48.150;11.506;2022-11-06T01:07:11;96028.16;;;8.36;84.36
9839;BME280;4958;48.150;11.506;2022-11-06T01:09:37;96031.81;;;8.34;84.67
9839;BME280;4958;48.150;11.506;2022-11-06T01:12:04;96024.13;;;8.34;84.99
9839;BME280;4958;48.150;11.506;2022-11-06T01:14:31;96028.16;;;8.36;84.31
9839;BME280;4958;48.150;11.506;2022-11-06T01:16:58;96025.28;;;8.39;84.47
9839;BME280;4958;48.150;11.506;2022-11-06T01:19:25;96013.41;;;8.38;84.12
9839;BME280;4958;48.150;11.506;2022-11-06T01:21:52;96015.25;;;8.28;83.86
9839;BME280;4958;48.150;11.506;2022-11-06T01:24:21;96003.88;;;8.30;84.74
9839;BME280;4958;48.150;11.506;2022-11-06T01:26:48;96009.69;;;8.32;84.18
9839;BME280;4958;48.150;11.506;2022-11-06T01:29:16;96004.03;;;8.29;84.27
9839;BME280;4958;48.150;11.506;2022-11-06T01:31:44;96006.41;;;8.22;83.83
9839;BME280;4958;48.150;11.506;2022-11-06T01:34:12;95999.81;;;8.20;84.09
9839;BME280;4958;48.150;11.506;2022-11-06T01:36:38;95999.00;;;8.19;83.72
9839;BME280;4958;48.150;11.506;2022-11-06T01:39:07;95996.59;;;8.18;83.38
9839;BME280;4958;48.150;11.506;2022-11-06T01:41:36;95993.38;;;8.16;83.60
9839;BME280;4958;48.150;11.506;2022-11-06T01:44:05;95987.72;;;8.12;83.17
9839;BME280;4958;48.150;11.506;2022-11-06T01:46:33;95984.38;;;8.12;83.86
9839;BME280;4958;48.150;11.506;2022-11-06T01:49:03;95985.16;;;8.12;83.90
9839;BME280;4958;48.150;11.506;2022-11-06T01:51:34;95987.72;;;8.12;83.43
9839;BME280;4958;48.150;11.506;2022-11-06T01:54:04;95987.72;;;8.12;82.99
9839;BME280;4958;48.150;11.506;2022-11-06T01:56:31;95981.81;;;8.12;82.75
9839;BME280;4958;48.150;11.506;2022-11-06T01:58:58;95973.56;;;8.00;82.32
9839;BME280;4958;48.150;11.506;2022-11-06T02:01:25;95978.47;;;7.93;82.66
9839;BME280;4958;48.150;11.506;2022-11-06T02:03:55;95988.69;;;7.85;83.00
9839;BME280;4958;48.150;11.506;2022-11-06T02:06:23;95991.69;;;7.81;83.37
9839;BME280;4958;48.150;11.506;2022-11-06T02:08:51;95986.44;;;7.82;83.51
9839;BME280;4958;48.150;11.506;2022-11-06T02:11:17;95986.78;;;7.87;83.75
9839;BME280;4958;48.150;11.506;2022-11-06T02:13:52;95981.19;;;7.92;83.82
9839;BME280;4958;48.150;11.506;2022-11-06T02:16:26;95986.03;;;7.95;83.61
9839;BME280;4958;48.150;11.506;2022-11-06T02:19:05;95981.69;;;7.95;83.49
9839;BME280;4958;48.150;11.506;2022-11-06T02:21:53;95974.31;;;7.92;83.06
9839;BME280;4958;48.150;11.506;2022-11-06T02:24:49;95973.03;;;7.88;82.97
9839;BME280;4958;48.150;11.506;2022-11-06T02:27:18;95976.06;;;7.92;83.41
9839;BME280;4958;48.150;11.506;2022-11-06T02:29:51;95968.03;;;7.87;83.24
9839;BME280;4958;48.150;11.506;2022-11-06T02:32:26;95971.56;;;7.86;83.55
9839;BME280;4958;48.150;11.506;2022-11-06T02:34:55;95969.00;;;7.86;83.75
9839;BME280;4958;48.150;11.506;2022-11-06T02:37:28;95963.88;;;7.86;83.85
9839;BME280;4958;48.150;11.506;2022-11-06T02:39:58;95965.63;;;7.85;84.04
9839;BME280;4958;48.150;11.506;2022-11-06T02:42:29;95971.41;;;7.87;84.19
9839;BME280;4958;48.150;11.506;2022-11-06T02:44:57;95965.47;;;7.87;84.12
9839;BME280;4958;48.150;11.506;2022-11-06T02:47:27;95956.47;;;7.83;83.75
9839;BME280;4958;48.150;11.506;2022-11-06T02:49:59;95949.53;;;7.75;84.02
9839;BME280;4958;48.150;11.506;2022-11-06T02:52:31;95944.78;;;7.62;84.44
9839;BME280;4958;48.150;11.506;2022-11-06T02:55:03;95942.75;;;7.66;84.67
9839;BME280;4958;48.150;11.506;2022-11-06T02:57:35;95943.19;;;7.61;84.27
9839;BME280;4958;48.150;11.506;2022-11-06T03:00:05;95938.22;;;7.60;84.28
9839;BME280;4958;48.150;11.506;2022-11-06T03:02:35;95945.31;;;7.66;83.85
9839;BME280;4958;48.150;11.506;2022-11-06T03:05:08;95952.13;;;7.57;84.33
9839;BME280;4958;48.150;11.506;2022-11-06T03:07:39;95941.56;;;7.60;84.81
9839;BME280;4958;48.150;11.506;2022-11-06T03:10:08;95936.00;;;7.65;84.64
9839;BME280;4958;48.150;11.506;2022-11-06T03:12:44;95942.59;;;7.68;83.85
9839;BME280;4958;48.150;11.506;2022-11-06T03:15:19;95943.03;;;7.63;83.89
9839;BME280;4958;48.150;11.506;2022-11-06T03:17:51;95936.31;;;7.62;83.40
9839;BME280;4958;48.150;11.506;2022-11-06T03:20:29;95939.66;;;7.62;82.73
9839;BME280;4958;48.150;11.506;2022-11-06T03:23:01;95932.56;;;7.56;82.61
9839;BME280;4958;48.150;11.506;2022-11-06T03:25:34;95934.19;;;7.57;82.14
9839;BME280;4958;48.150;11.506;2022-11-06T03:28:08;95938.00;;;7.53;82.20
9839;BME280;4958;48.150;11.506;2022-11-06T03:30:39;95945.69;;;7.53;82.23
9839;BME280;4958;48.150;11.506;2022-11-06T03:33:09;95950.00;;;7.53;82.30
9839;BME280;4958;48.150;11.506;2022-11-06T03:35:42;95949.19;;;7.52;82.07
9839;BME280;4958;48.150;11.506;2022-11-06T03:38:12;95940.00;;;7.42;81.83
9839;BME280;4958;48.150;11.506;2022-11-06T03:40:45;95951.63;;;7.36;81.96
9839;BME280;4958;48.150;11.506;2022-11-06T03:43:16;95949.59;;;7.22;81.17
9839;BME280;4958;48.150;11.506;2022-11-06T03:45:45;95947.31;;;7.19;81.33
9839;BME280;4958;48.150;11.506;2022-11-06T03:48:15;95941.53;;;7.17;82.14
9839;BME280;4958;48.150;11.506;2022-11-06T03:50:48;95951.56;;;7.10;82.08
9839;BME280;4958;48.150;11.506;2022-11-06T03:53:21;95949.81;;;7.11;81.85
9839;BME280;4958;48.150;11.506;2022-11-06T03:55:52;95945.28;;;7.05;81.50
9839;BME280;4958;48.150;11.506;2022-11-06T03:58:23;95950.59;;;6.93;81.76
9839;BME280;4958;48.150;11.506;2022-11-06T04:00:52;95948.09;;;6.84;82.26
9839;BME280;4958;48.150;11.506;2022-11-06T04:03:23;95939.19;;;6.88;82.02
9839;BME280;4958;48.150;11.506;2022-11-06T04:05:55;95939.84;;;6.90;82.25
9839;BME280;4958;48.150;11.506;2022-11-06T04:08:25;95936.50;;;6.89;82.51
9839;BME280;4958;48.150;11.506;2022-11-06T04:11:14;95937.97;;;6.92;82.35
9839;BME280;4958;48.150;11.506;2022-11-06T04:14:10;95927.50;;;6.85;82.06
9839;BME280;4958;48.150;11.506;2022-11-06T04:16:42;95927.25;;;6.79;82.55
9839;BME280;4958;48.150;11.506;2022-11-06T04:19:13;95934.38;;;6.85;83.08
9839;BME280;4958;48.150;11.506;2022-11-06T04:21:47;95931.22;;;6.91;82.83
9839;BME280;4958;48.150;11.506;2022-11-06T04:24:26;95926.91;;;6.91;83.03
9839;BME280;4958;48.150;11.506;2022-11-06T04:27:37;95925.22;;;7.00;82.76
9839;BME280;4958;48.150;11.506;2022-11-06T04:30:12;95927.22;;;7.06;82.61
9839;BME280;4958;48.150;11.506;2022-11-06T04:32:52;95923.56;;;7.09;81.82
9839;BME280;4958;48.150;11.506;2022-11-06T04:35:29;95921.47;;;7.12;81.59
9839;BME280;4958;48.150;11.506;2022-11-06T04:38:01;95923.75;;;7.15;80.84
9839;BME280;4958;48.150;11.506;2022-11-06T04:40:33;95918.50;;;7.17;81.93
9839;BME280;4958;48.150;11.506;2022-11-06T04:43:05;95914.03;;;7.19;81.60
9839;BME280;4958;48.150;11.506;2022-11-06T04:45:36;95911.75;;;7.16;81.34
9839;BME280;4958;48.150;11.506;2022-11-06T04:48:05;95912.56;;;7.16;81.54
9839;BME280;4958;48.150;11.506;2022-11-06T04:50:35;95917.41;;;7.19;82.01
9839;BME280;4958;48.150;11.506;2022-11-06T04:53:06;95907.44;;;7.16;82.06
9839;BME280;4958;48.150;11.506;2022-11-06T04:55:38;95908.38;;;7.15;82.18
9839;BME280;4958;48.150;11.506;2022-11-06T04:58:09;95912.38;;;7.10;82.14
9839;BME280;4958;48.150;11.506;2022-11-06T05:00:38;95911.75;;;7.16;82.26
9839;BME280;4958;48.150;11.506;2022-11-06T05:03:07;95911.47;;;7.19;81.89
9839;BME280;4958;48.150;11.506;2022-11-06T05:05:33;95909.19;;;7.16;81.34
9839;BME280;4958;48.150;11.506;2022-11-06T05:08:00;95914.94;;;7.10;81.54
9839;BME280;4958;48.150;11.506;2022-11-06T05:10:26;95909.66;;;7.11;81.12
9839;BME280;4958;48.150;11.506;2022-11-06T05:12:53;95900.72;;;7.15;81.04
9839;BME280;4958;48.150;11.506;2022-11-06T05:15:19;95906.63;;;7.16;80.84
9839;BME280;4958;48.150;11.506;2022-11-06T05:17:47;95904.22;;;7.14;81.33
9839;BME280;4958;48.150;11.506;2022-11-06T05:20:14;95905.16;;;7.13;81.30
9839;BME280;4958;48.150;11.506;2022-11-06T05:22:40;95901.97;;;7.11;80.53
9839;BME280;4958;48.150;11.506;2022-11-06T05:25:26;95891.75;;;7.11;80.53
9839;BME280;4958;48.150;11.506;2022-11-06T05:27:52;95884.88;;;7.12;80.15
9839;BME280;4958;48.150;11.506;2022-11-06T05:30:19;95865.97;;;7.13;80.42
9839;BME280;4958;48.150;11.506;2022-11-06T05:32:47;95881.63;;;7.10;80.04
9839;BME280;4958;48.150;11.506;2022-11-06T05:35:14;95882.44;;;7.10;80.29
9839;BME280;4958;48.150;11.506;2022-11-06T05:37:40;95888.19;;;7.12;80.59
9839;BME280;4958;48.150;11.506;2022-11-06T05:40:07;95889.00;;;7.13;79.67
9839;BME280;4958;48.150;11.506;2022-11-06T05:42:36;95885.63;;;7.12;79.77
9839;BME280;4958;48.150;11.506;2022-11-06T05:45:03;95891.22;;;7.08;80.14
9839;BME280;4958;48.150;11.506;2022-11-06T05:47:29;95893.94;;;7.06;80.76
9839;BME280;4958;48.150;11.506;2022-11-06T05:49:57;95878.41;;;7.08;80.31
9839;BME280;4958;48.150;11.506;2022-11-06T05:52:24;95876.00;;;7.06;80.23
9839;BME280;4958;48.150;11.506;2022-11-06T05:54:50;95882.94;;;6.96;80.31
9839;BME280;4958;48.150;11.506;2022-11-06T05:57:17;95876.97;;;6.87;80.54
9839;BME280;4958;48.150;11.506;2022-11-06T05:59:43;95874.78;;;6.92;80.73
9839;BME280;4958;48.150;11.506;2022-11-06T06:02:10;95872.84;;;6.94;80.40
9839;BME280;4958;48.150;11.506;2022-11-06T06:04:36;95877.34;;;6.92;80.03
9839;BME280;4958;48.150;11.506;2022-11-06T06:07:06;95859.47;;;6.83;79.53
9839;BME280;4958;48.150;11.506;2022-11-06T06:09:32;95868.47;;;6.51;80.38
9839;BME280;4958;48.150;11.506;2022-11-06T06:11:59;95855.81;;;6.50;81.47
9839;BME280;4958;48.150;11.506;2022-11-06T06:14:25;95858.09;;;6.53;81.39
9839;BME280;4958;48.150;11.506;2022-11-06T06:16:52;95850.88;;;6.39;83.36
9839;BME280;4958;48.150;11.506;2022-11-06T06:19:18;95854.22;;;6.49;83.41
9839;BME280;4958;48.150;11.506;2022-11-06T06:21:48;95859.84;;;6.52;83.65
9839;BME280;4958;48.150;11.506;2022-11-06T06:24:16;95850.63;;;6.59;83.87
9839;BME280;4958;48.150;11.506;2022-11-06T06:26:42;95852.94;;;6.35;85.73
9839;BME280;4958;48.150;11.506;2022-11-06T06:29:09;95842.53;;;6.19;87.88
9839;BME280;4958;48.150;11.506;2022-11-06T06:31:35;95845.16;;;6.09;88.49
9839;BME280;4958;48.150;11.506;2022-11-06T06:34:02;95840.06;;;6.00;89.67
9839;BME280;4958;48.150;11.506;2022-11-06T06:36:29;95850.44;;;5.98;90.29
9839;BME280;4958;48.150;11.506;2022-11-06T06:38:55;95845.97;;;6.00;90.36
9839;BME280;4958;48.150;11.506;2022-11-06T06:41:23;95850.13;;;6.11;89.31
9839;BME280;4958;48.150;11.506;2022-11-06T06:43:50;95845.03;;;6.29;88.49
9839;BME280;4958;48.150;11.506;2022-11-06T06:46:17;95841.69;;;6.46;87.31
9839;BME280;4958;48.150;11.506;2022-11-06T06:48:44;95844.78;;;6.67;86.26
9839;BME280;4958;48.150;11.506;2022-11-06T06:51:10;95835.88;;;6.89;85.33
9839;BME280;4958;48.150;11.506;2022-11-06T06:53:37;95839.72;;;7.37;83.06
9839;BME280;4958;48.150;11.506;2022-11-06T06:56:04;95832.50;;;7.58;80.42
9839;BME280;4958;48.150;11.506;2022-11-06T06:58:32;95841.63;;;7.86;78.93
9839;BME280;4958;48.150;11.506;2022-11-06T07:00:59;95836.47;;;8.20;77.91
9839;BME280;4958;48.150;11.506;2022-11-06T07:03:26;95827.28;;;8.60;82.43
9839;BME280;4958;48.150;11.506;2022-11-06T07:05:53;95831.81;;;8.90;78.20
9839;BME280;4958;48.150;11.506;2022-11-06T07:08:19;95826.84;;;9.13;76.61
9839;BME280;4958;48.150;11.506;2022-11-06T07:10:46;95840.63;;;9.37;78.28
9839;BME280;4958;48.150;11.506;2022-11-06T07:13:12;95843.63;;;9.64;78.31
9839;BME280;4958;48.150;11.506;2022-11-06T07:15:40;95842.56;;;9.26;71.01
9839;BME280;4958;48.150;11.506;2022-11-06T07:18:07;95841.13;;;8.99;72.25
9839;BME280;4958;48.150;11.506;2022-11-06T07:20:33;95842.66;;;8.44;74.63
9839;BME280;4958;48.150;11.506;2022-11-06T07:23:04;95846.16;;;8.01;76.79
9839;BME280;4958;48.150;11.506;2022-11-06T07:25:31;95849.22;;;7.70;77.90
9839;BME280;4958;48.150;11.506;2022-11-06T07:27:59;95864.16;;;7.49;79.17
9839;BME280;4958;48.150;11.506;2022-11-06T07:30:26;95866.84;;;7.21;81.19
9839;BME280;4958;48.150;11.506;2022-11-06T07:32:54;95874.53;;;7.04;82.54
9839;BME280;4958;48.150;11.506;2022-11-06T07:35:20;95881.19;;;6.79;84.26
9839;BME280;4958;48.150;11.506;2022-11-06T07:37:47;95868.63;;;6.68;85.82
9839;BME280;4958;48.150;11.506;2022-11-06T07:40:13;95875.25;;;6.61;87.14
9839;BME280;4958;48.150;11.506;2022-11-06T07:42:40;95869.06;;;6.63;87.96
9839;BME280;4958;48.150;11.506;2022-11-06T07:45:08;95866.72;;;6.70;90.92
9839;BME280;4958;48.150;11.506;2022-11-06T07:47:35;95870.81;;;6.80;90.26
9839;BME280;4958;48.150;11.506;2022-11-06T07:50:03;95870.28;;;6.94;89.05
9839;BME280;4958;48.150;11.506;2022-11-06T07:52:31;95870.13;;;7.14;88.61
9839;BME280;4958;48.150;11.506;2022-11-06T07:55:00;95860.91;;;7.21;88.98
9839;BME280;4958;48.150;11.506;2022-11-06T07:57:27;95853.16;;;7.31;89.03
9839;BME280;4958;48.150;11.506;2022-11-06T07:59:54;95853.69;;;7.42;89.26
9839;BME280;4958;48.150;11.506;2022-11-06T08:02:20;95849.19;;;7.62;89.08
9839;BME280;4958;48.150;11.506;2022-11-06T08:04:46;95847.22;;;7.56;88.66
9839;BME280;4958;48.150;11.506;2022-11-06T08:07:14;95836.88;;;7.66;89.76
9839;BME280;4958;48.150;11.506;2022-11-06T08:09:41;95835.41;;;7.63;90.15
9839;BME280;4958;48.150;11.506;2022-11-06T08:12:07;95821.78;;;7.88;89.74
9839;BME280;4958;48.150;11.506;2022-11-06T08:14:34;95826.22;;;8.20;87.85
9839;BME280;4958;48.150;11.506;2022-11-06T08:17:00;95806.59;;;8.45;87.32
9839;BME280;4958;48.150;11.506;2022-11-06T08:19:27;95804.66;;;8.55;85.65
9839;BME280;4958;48.150;11.506;2022-11-06T08:21:53;95802.28;;;8.70;84.53
9839;BME280;4958;48.150;11.506;2022-11-06T08:24:21;95799.41;;;8.97;83.91
9839;BME280;4958;48.150;11.506;2022-11-06T08:26:48;95796.00;;;9.13;82.79
9839;BME280;4958;48.150;11.506;2022-11-06T08:29:14;95804.78;;;9.51;81.64
9839;BME280;4958;48.150;11.506;2022-11-06T08:31:41;95799.81;;;9.58;80.81
9839;BME280;4958;48.150;11.506;2022-11-06T08:34:07;95793.59;;;9.83;79.96
9839;BME280;4958;48.150;11.506;2022-11-06T08:36:35;95799.66;;;9.98;79.35
9839;BME280;4958;48.150;11.506;2022-11-06T08:39:06;95795.56;;;10.12;77.80
9839;BME280;4958;48.150;11.506;2022-11-06T08:41:34;95786.56;;;10.16;76.39
9839;BME280;4958;48.150;11.506;2022-11-06T08:44:00;95785.53;;;10.33;76.43
9839;BME280;4958;48.150;11.506;2022-11-06T08:46:27;95785.59;;;10.17;76.58
9839;BME280;4958;48.150;11.506;2022-11-06T08:48:53;95785.13;;;10.14;76.44
9839;BME280;4958;48.150;11.506;2022-11-06T08:51:20;95796.00;;;9.85;75.78
9839;BME280;4958;48.150;11.506;2022-11-06T08:53:47;95787.66;;;9.83;77.18
9839;BME280;4958;48.150;11.506;2022-11-06T08:56:13;95779.81;;;9.76;77.43
9839;BME280;4958;48.150;11.506;2022-11-06T08:58:41;95772.97;;;9.60;77.82
9839;BME280;4958;48.150;11.506;2022-11-06T09:01:08;95763.41;;;9.77;78.08
9839;BME280;4958;48.150;11.506;2022-11-06T09:03:35;95759.56;;;9.81;78.05
9839;BME280;4958;48.150;11.506;2022-11-06T09:06:03;95755.47;;;9.95;77.42
9839;BME280;4958;48.150;11.506;2022-11-06T09:08:30;95742.69;;;10.10;78.32
9839;BME280;4958;48.150;11.506;2022-11-06T09:10:59;95745.88;;;10.20;77.97
9839;BME280;4958;48.150;11.506;2022-11-06T09:13:26;95738.50;;;10.39;76.62
9839;BME280;4958;48.150;11.506;2022-11-06T09:15:54;95741.31;;;10.30;76.25
9839;BME280;4958;48.150;11.506;2022-11-06T09:18:20;95727.66;;;9.98;77.74
9839;BME280;4958;48.150;11.506;2022-11-06T09:20:46;95724.38;;;10.04;77.72
9839;BME280;4958;48.150;11.506;2022-11-06T09:23:13;95715.78;;;9.89;79.14
9839;BME280;4958;48.150;11.506;2022-11-06T09:25:39;95715.22;;;10.02;79.03
9839;BME280;4958;48.150;11.506;2022-11-06T09:28:06;95715.78;;;10.20;78.75
9839;BME280;4958;48.150;11.506;2022-11-06T09:30:32;95702.84;;;10.36;77.72
9839;BME280;4958;48.150;11.506;2022-11-06T09:33:01;95699.13;;;10.39;77.93
9839;BME280;4958;48.150;11.506;2022-11-06T09:35:30;95694.00;;;10.31;77.09
9839;BME280;4958;48.150;11.506;2022-11-06T09:38:00;95687.47;;;10.20;77.70
9839;BME280;4958;48.150;11.506;2022-11-06T09:40:30;95683.75;;;10.23;78.05
9839;BME280;4958;48.150;11.506;2022-11-06T09:43:04;95673.19;;;10.41;78.26
9839;BME280;4958;48.150;11.506;2022-11-06T09:45:37;95674.44;;;10.45;76.81
9839;BME280;4958;48.150;11.506;2022-11-06T09:48:14;95676.69;;;10.62;77.01
9839;BME280;4958;48.150;11.506;2022-11-06T09:50:46;95674.25;;;10.69;76.72
9839;BME280;4958;48.150;11.506;2022-11-06T09:53:18;95668.47;;;10.82;77.84
9839;BME280;4958;48.150;11.506;2022-11-06T09:55:48;95664.34;;;11.10;77.08
9839;BME280;4958;48.150;11.506;2022-11-06T09:58:18;95657.31;;;11.33;75.61
9839;BME280;4958;48.150;11.506;2022-11-06T10:00:47;95648.22;;;11.52;74.76
9839;BME280;4958;48.150;11.506;2022-11-06T10:03:18;95655.94;;;11.67;73.70
9839;BME280;4958;48.150;11.506;2022-11-06T10:05:51;95655.94;;;11.67;72.63
9839;BME280;4958;48.150;11.506;2022-11-06T10:08:20;95656.03;;;11.59;72.56
9839;BME280;4958;48.150;11.506;2022-11-06T10:10:55;95639.53;;;11.38;72.00
9839;BME280;4958;48.150;11.506;2022-11-06T10:13:36;95625.56;;;11.48;71.80
9839;BME280;4958;48.150;11.506;2022-11-06T10:16:12;95632.69;;;11.31;70.19
9839;BME280;4958;48.150;11.506;2022-11-06T10:18:49;95618.66;;;11.33;72.19
9839;BME280;4958;48.150;11.506;2022-11-06T10:21:22;95616.16;;;11.25;70.83
9839;BME280;4958;48.150;11.506;2022-11-06T10:23:53;95607.81;;;11.23;71.61
9839;BME280;4958;48.150;11.506;2022-11-06T10:26:29;95598.66;;;11.21;71.66
9839;BME280;4958;48.150;11.506;2022-11-06T10:29:26;95592.84;;;11.48;74.52
9839;BME280;4958;48.150;11.506;2022-11-06T10:32:07;95583.88;;;11.80;72.70
9839;BME280;4958;48.150;11.506;2022-11-06T10:34:40;95587.63;;;11.77;70.56
9839;BME280;4958;48.150;11.506;2022-11-06T10:37:10;95592.44;;;11.66;70.33
9839;BME280;4958;48.150;11.506;2022-11-06T10:39:41;95583.81;;;11.59;70.37
9839;BME280;4958;48.150;11.506;2022-11-06T10:42:14;95576.13;;;11.44;69.97
9839;BME280;4958;48.150;11.506;2022-11-06T10:44:46;95568.50;;;11.36;70.93
9839;BME280;4958;48.150;11.506;2022-11-06T10:47:18;95569.56;;;11.41;72.01
9839;BME280;4958;48.150;11.506;2022-11-06T10:49:48;95559.19;;;11.35;71.55
9839;BME280;4958;48.150;11.506;2022-11-06T10:52:31;95552.75;;;11.46;71.31
9839;BME280;4958;48.150;11.506;2022-11-06T10:58:14;95539.19;;;11.58;70.48
9839;BME280;4958;48.150;11.506;2022-11-06T11:00:42;95536.50;;;11.66;69.92
9839;BME280;4958;48.150;11.506;2022-11-06T11:03:16;95530.72;;;11.64;69.91
9839;BME280;4958;48.150;11.506;2022-11-06T11:05:45;95527.59;;;11.69;69.89
9839;BME280;4958;48.150;11.506;2022-11-06T11:08:30;95522.97;;;11.64;69.96
9839;BME280;4958;48.150;11.506;2022-11-06T11:11:00;95505.72;;;11.65;70.49
9839;BME280;4958;48.150;11.506;2022-11-06T11:13:27;95493.88;;;11.70;70.36
9839;BME280;4958;48.150;11.506;2022-11-06T11:15:54;95487.56;;;11.73;70.55
9839;BME280;4958;48.150;11.506;2022-11-06T11:18:22;95493.53;;;11.73;69.57
9839;BME280;4958;48.150;11.506;2022-11-06T11:21:06;95482.41;;;11.73;69.80
9839;BME280;4958;48.150;11.506;2022-11-06T11:23:38;95477.81;;;11.90;69.16
9839;BME280;4958;48.150;11.506;2022-11-06T11:26:19;95476.03;;;11.90;68.37
9839;BME280;4958;48.150;11.506;2022-11-06T11:28:51;95470.28;;;11.95;70.23
9839;BME280;4958;48.150;11.506;2022-11-06T11:31:19;95469.16;;;12.04;68.97
9839;BME280;4958;48.150;11.506;2022-11-06T11:33:54;95467.22;;;12.13;68.32
9839;BME280;4958;48.150;11.506;2022-11-06T11:36:24;95471.81;;;12.17;65.37
9839;BME280;4958;48.150;11.506;2022-11-06T11:38:51;95465.84;;;12.10;63.01
9839;BME280;4958;48.150;11.506;2022-11-06T11:41:28;95468.50;;;11.95;63.14
9839;BME280;4958;48.150;11.506;2022-11-06T11:43:56;95464.72;;;11.91;62.87
9839;BME280;4958;48.150;11.506;2022-11-06T11:46:25;95462.22;;;12.04;63.69
9839;BME280;4958;48.150;11.506;2022-11-06T11:48:53;95458.31;;;12.15;63.45
9839;BME280;4958;48.150;11.506;2022-11-06T11:51:28;95447.13;;;12.01;61.19
9839;BME280;4958;48.150;11.506;2022-11-06T11:53:57;95448.31;;;11.77;62.01
9839;BME280;4958;48.150;11.506;2022-11-06T11:56:25;95446.53;;;11.78;62.07
9839;BME280;4958;48.150;11.506;2022-11-06T11:58:59;95439.75;;;11.98;62.61
9839;BME280;4958;48.150;11.506;2022-11-06T12:01:34;95430.09;;;12.07;60.19
9839;BME280;4958;48.150;11.506;2022-11-06T12:04:08;95423.84;;;11.95;59.72
9839;BME280;4958;48.150;11.506;2022-11-06T12:06:53;95419.09;;;11.98;59.55
9839;BME280;4958;48.150;11.506;2022-11-06T12:09:21;95428.69;;;12.04;59.60
9839;BME280;4958;48.150;11.506;2022-11-06T12:11:48;95423.69;;;12.03;60.77
9839;BME280;4958;48.150;11.506;2022-11-06T12:14:18;95419.09;;;11.98;60.48
9839;BME280;4958;48.150;11.506;2022-11-06T12:16:51;95417.19;;;12.07;61.54
9839;BME280;4958;48.150;11.506;2022-11-06T12:19:19;95421.78;;;12.12;61.31
9839;BME280;4958;48.150;11.506;2022-11-06T12:21:52;95423.28;;;12.34;61.75
9839;BME280;4958;48.150;11.506;2022-11-06T12:24:22;95421.91;;;12.31;63.37
9839;BME280;4958;48.150;11.506;2022-11-06T12:26:53;95416.56;;;12.39;63.80
9839;BME280;4958;48.150;11.506;2022-11-06T12:29:25;95414.25;;;12.58;63.75
9839;BME280;4958;48.150;11.506;2022-11-06T12:31:58;95414.91;;;12.66;63.95
9839;BME280;4958;48.150;11.506;2022-11-06T12:37:39;95412.16;;;12.81;63.20
9839;BME280;4958;48.150;11.506;2022-11-06T12:40:26;95407.41;;;12.37;63.40
9839;BME280;4958;48.150;11.506;2022-11-06T12:43:09;95409.13;;;12.23;63.65
9839;BME280;4958;48.150;11.506;2022-11-06T12:49:02;95413.44;;;12.09;62.99
9839;BME280;4958;48.150;11.506;2022-11-06T12:51:41;95425.00;;;12.20;62.45
9839;BME280;4958;48.150;11.506;2022-11-06T12:54:22;95423.88;;;12.29;61.69
9839;BME280;4958;48.150;11.506;2022-11-06T12:56:56;95425.94;;;12.47;61.73
9839;BME280;4958;48.150;11.506;2022-11-06T12:59:36;95425.63;;;12.70;61.37
9839;BME280;4958;48.150;11.506;2022-11-06T13:02:18;95428.03;;;12.78;60.31
9839;BME280;4958;48.150;11.506;2022-11-06T13:04:51;95421.06;;;12.72;61.02
9839;BME280;4958;48.150;11.506;2022-11-06T13:07:51;95424.81;;;12.63;61.34
9839;BME280;4958;48.150;11.506;2022-11-06T13:10:32;95421.81;;;12.59;61.70
9839;BME280;4958;48.150;11.506;2022-11-06T13:13:18;95405.09;;;12.55;61.06
9839;BME280;4958;48.150;11.506;2022-11-06T13:15:51;95390.69;;;12.33;60.85
9839;BME280;4958;48.150;11.506;2022-11-06T13:18:23;95378.97;;;12.24;61.56
9839;BME280;4958;48.150;11.506;2022-11-06T13:20:59;95362.72;;;12.30;62.49
9839;BME280;4958;48.150;11.506;2022-11-06T13:23:34;95360.50;;;12.27;61.51
9839;BME280;4958;48.150;11.506;2022-11-06T13:26:21;95360.28;;;12.22;61.91
9839;BME280;4958;48.150;11.506;2022-11-06T13:31:50;95359.75;;;12.39;62.63
9839;BME280;4958;48.150;11.506;2022-11-06T13:34:21;95346.22;;;12.31;62.42
9839;BME280;4958;48.150;11.506;2022-11-06T13:36:57;95349.38;;;12.26;63.16
9839;BME280;4958;48.150;11.506;2022-11-06T13:39:28;95334.88;;;12.32;63.34
9839;BME280;4958;48.150;11.506;2022-11-06T13:41:59;95327.41;;;12.43;63.60
9839;BME280;4958;48.150;11.506;2022-11-06T13:44:27;95327.81;;;12.47;64.26
9839;BME280;4958;48.150;11.506;2022-11-06T13:46:57;95315.13;;;12.59;64.42